Bandelier National Monument, New Mexico
Current Conditions -  °F | °C
As of 1:15 PM on Wednesday 28 Jan 2015 (Local Time) from KLAM Reporting Station
Clear Clear  
Wind Chill: 48°   Ceiling: Unl
Heat Index: 48°   Visibility: 10mi
Dew Point: 29°   Wind: 3mph
Humidity: 48%   Direction: 60°ENE
Pressure: 30.23"   Gusts: NA
Location:  35.8375°N, 106.349°W
Report Text: KLAM 282015Z AUTO 06003KT 10SM CLR 09/M01 A3023 RMK AO2 T00901014
Loading
Personal Weather Stations






























Interactive Weather Map New forecast layout! Learn more

10-Day Weather Forecast

Advertisements
Track Severe Weather on mobile